Terminal Aerodrome Forecast
Issued by NWS Wilmington, NC

Home | Current Version | Previous Version | Text Only | Print | Product List | Glossary On
Versions: 1 2 3 4 5 6 7 8 9 10 11 12 13 14 15 16 17 18 19 20 21 22 23 24 25 26 27 28
000
FTUS42 KILM 052200 AAB
TAFMYR
TAF AMD
KMYR 052225Z 0522/0618 35020G30KT P6SM -RA BKN050
     FM052300 36015G25KT 6SM -RA SCT015 OVC025
      TEMPO 0523/0601 BKN015
     FM060100 01012G23KT 6SM -RA SCT007 OVC015
     FM060300 01020G28KT 4SM -RAPL BR BKN007 OVC012
     FM060900 01022G30KT P6SM -RA BKN015 OVC025
     FM061200 03020G28KT P6SM SCT025 BKN050=

USA.gov is the U.S. government's official web portal to all federal, state and local government web resources and services.